FDX1423 KSEA-KLAX
Flight info
| Callsign | FDX1423 |
|---|---|
| Flight time | 2h 3m |
| Altitude | 35000 |
| Route | SUMMA2 SUMMA JINMO Q7 JAGWA BURGL IRNMN2 |
| Aircraft | B77L/H-SDE1E2E3FGHIJ2J3J4J5M1RWXY/LB1D1 |
Departure
| Time | 2026-05-05 02:52 |
|---|---|
| Airport | Seattle–Tacoma International Airport (KSEA) |
Arrival
| Time | 2026-05-05 04:55 |
|---|---|
| Airport | Los Angeles International Airport (KLAX) |
| Time | Latitude | Longitude | Altitude | Speed | Heading |
|---|---|---|---|---|---|
| 2026-05-05 02:24 | 47.46099 | -122.30081 | 388 ft | 0 kts | 180° |
| 2026-05-05 02:42 | 47.46119 | -122.30081 | 388 ft | 4 kts | 180° |
| 2026-05-05 02:42 | 47.46143 | -122.30081 | 388 ft | 4 kts | 183° |
| 2026-05-05 02:43 | 47.46164 | -122.30075 | 388 ft | 4 kts | 223° |
| 2026-05-05 02:43 | 47.46173 | -122.30051 | 388 ft | 4 kts | 265° |
| 2026-05-05 02:43 | 47.46174 | -122.30014 | 388 ft | 2 kts | 271° |
| 2026-05-05 02:43 | 47.46174 | -122.30012 | 388 ft | 0 kts | 271° |
| 2026-05-05 02:47 | 47.46174 | -122.30033 | 388 ft | 6 kts | 271° |
| 2026-05-05 02:47 | 47.46174 | -122.30096 | 388 ft | 6 kts | 270° |
| 2026-05-05 02:47 | 47.46175 | -122.30158 | 388 ft | 6 kts | 271° |
| 2026-05-05 02:48 | 47.46179 | -122.30220 | 388 ft | 6 kts | 277° |
| 2026-05-05 02:48 | 47.46183 | -122.30283 | 388 ft | 6 kts | 272° |
| 2026-05-05 02:48 | 47.46183 | -122.30345 | 388 ft | 6 kts | 271° |
| 2026-05-05 02:48 | 47.46184 | -122.30408 | 388 ft | 6 kts | 270° |
| 2026-05-05 02:49 | 47.46189 | -122.30469 | 388 ft | 6 kts | 292° |
| 2026-05-05 02:49 | 47.46224 | -122.30502 | 388 ft | 6 kts | 345° |
| 2026-05-05 02:49 | 47.46266 | -122.30518 | 388 ft | 6 kts | 343° |
| 2026-05-05 02:49 | 47.46305 | -122.30545 | 388 ft | 7 kts | 326° |
| 2026-05-05 02:50 | 47.46338 | -122.30591 | 388 ft | 7 kts | 312° |
| 2026-05-05 02:50 | 47.46366 | -122.30644 | 388 ft | 7 kts | 302° |
| 2026-05-05 02:50 | 47.46372 | -122.30707 | 388 ft | 7 kts | 258° |
| 2026-05-05 02:50 | 47.46347 | -122.30761 | 388 ft | 7 kts | 218° |
| 2026-05-05 02:51 | 47.46301 | -122.30775 | 388 ft | 11 kts | 183° |
| 2026-05-05 02:51 | 47.46099 | -122.30779 | 388 ft | 56 kts | 180° |
| 2026-05-05 02:51 | 47.45479 | -122.30785 | 388 ft | 122 kts | 180° |
| 2026-05-05 02:51 | 47.44440 | -122.30798 | 418 ft | 169 kts | 183° |
| 2026-05-05 02:52 | 47.43252 | -122.30816 | 912 ft | 174 kts | 184° |
| 2026-05-05 02:52 | 47.42047 | -122.30836 | 1494 ft | 176 kts | 182° |
| 2026-05-05 02:52 | 47.40829 | -122.30829 | 2205 ft | 178 kts | 181° |
| 2026-05-05 02:52 | 47.39540 | -122.30826 | 2508 ft | 200 kts | 180° |
| 2026-05-05 02:53 | 47.38072 | -122.30827 | 2755 ft | 224 kts | 180° |
| 2026-05-05 02:53 | 47.36422 | -122.30836 | 3062 ft | 248 kts | 180° |
| 2026-05-05 02:53 | 47.34670 | -122.30850 | 3559 ft | 263 kts | 180° |
| 2026-05-05 02:53 | 47.32816 | -122.30868 | 4277 ft | 270 kts | 180° |
| 2026-05-05 02:54 | 47.30965 | -122.30890 | 4917 ft | 280 kts | 180° |
| 2026-05-05 02:54 | 47.29004 | -122.30916 | 5639 ft | 286 kts | 180° |
| 2026-05-05 02:54 | 47.26998 | -122.30943 | 6423 ft | 290 kts | 180° |
| 2026-05-05 02:54 | 47.25014 | -122.30964 | 7211 ft | 290 kts | 178° |
| 2026-05-05 02:55 | 47.23054 | -122.30294 | 7756 ft | 295 kts | 148° |
| 2026-05-05 02:55 | 47.21382 | -122.28672 | 8368 ft | 295 kts | 150° |
| 2026-05-05 02:55 | 47.19473 | -122.27462 | 9092 ft | 299 kts | 160° |
| 2026-05-05 02:55 | 47.17494 | -122.26503 | 9909 ft | 301 kts | 161° |
| 2026-05-05 02:56 | 47.15517 | -122.25591 | 10460 ft | 311 kts | 161° |
| 2026-05-05 02:56 | 47.13402 | -122.24601 | 10654 ft | 336 kts | 161° |
| 2026-05-05 02:56 | 47.11157 | -122.23525 | 10838 ft | 361 kts | 161° |
| 2026-05-05 02:56 | 47.08683 | -122.22316 | 11102 ft | 383 kts | 160° |
| 2026-05-05 02:57 | 47.06115 | -122.21042 | 11729 ft | 394 kts | 160° |
| 2026-05-05 02:57 | 47.03544 | -122.19757 | 12546 ft | 400 kts | 160° |
| 2026-05-05 02:57 | 47.00892 | -122.18424 | 13415 ft | 406 kts | 160° |
| 2026-05-05 02:57 | 46.98248 | -122.17092 | 14156 ft | 413 kts | 160° |
| 2026-05-05 02:58 | 46.95505 | -122.15710 | 14911 ft | 419 kts | 160° |
| 2026-05-05 02:58 | 46.92729 | -122.14312 | 15671 ft | 425 kts | 160° |
| 2026-05-05 02:58 | 46.90005 | -122.12941 | 16411 ft | 430 kts | 160° |
| 2026-05-05 02:58 | 46.87159 | -122.11510 | 17137 ft | 436 kts | 160° |
| 2026-05-05 02:59 | 46.84323 | -122.10087 | 17818 ft | 442 kts | 160° |
| 2026-05-05 02:59 | 46.81398 | -122.08621 | 18453 ft | 448 kts | 159° |
| 2026-05-05 02:59 | 46.78545 | -122.07192 | 19117 ft | 451 kts | 159° |
| 2026-05-05 02:59 | 46.75488 | -122.05663 | 19798 ft | 455 kts | 159° |
| 2026-05-05 03:00 | 46.72487 | -122.04163 | 20390 ft | 461 kts | 159° |
| 2026-05-05 03:00 | 46.69490 | -122.02668 | 21013 ft | 465 kts | 159° |
| 2026-05-05 03:00 | 46.66406 | -122.01130 | 21600 ft | 471 kts | 159° |
| 2026-05-05 03:00 | 46.63292 | -121.99794 | 22057 ft | 476 kts | 169° |
| 2026-05-05 03:01 | 46.59988 | -121.99784 | 22456 ft | 487 kts | 191° |
| 2026-05-05 03:01 | 46.56794 | -122.01357 | 23112 ft | 483 kts | 205° |
| 2026-05-05 03:01 | 46.53745 | -122.03324 | 23413 ft | 492 kts | 203° |
| 2026-05-05 03:01 | 46.50583 | -122.05144 | 23819 ft | 498 kts | 201° |
| 2026-05-05 03:02 | 46.47511 | -122.06813 | 24403 ft | 498 kts | 201° |
| 2026-05-05 03:02 | 46.44148 | -122.08643 | 25013 ft | 501 kts | 201° |
| 2026-05-05 03:02 | 46.40863 | -122.10335 | 25496 ft | 504 kts | 195° |
| 2026-05-05 03:02 | 46.37475 | -122.11334 | 25901 ft | 509 kts | 186° |
| 2026-05-05 03:03 | 46.33934 | -122.11613 | 26355 ft | 511 kts | 177° |
| 2026-05-05 03:03 | 46.30445 | -122.11174 | 26893 ft | 510 kts | 168° |
| 2026-05-05 03:03 | 46.26966 | -122.10314 | 27363 ft | 513 kts | 167° |
| 2026-05-05 03:03 | 46.23442 | -122.09397 | 27807 ft | 516 kts | 167° |
| 2026-05-05 03:04 | 46.19961 | -122.08490 | 28256 ft | 519 kts | 167° |
| 2026-05-05 03:04 | 46.16444 | -122.07593 | 28697 ft | 523 kts | 168° |
| 2026-05-05 03:04 | 46.12898 | -122.06712 | 29114 ft | 526 kts | 168° |
| 2026-05-05 03:04 | 46.09311 | -122.05840 | 29534 ft | 529 kts | 168° |
| 2026-05-05 03:05 | 46.05676 | -122.04972 | 30028 ft | 529 kts | 168° |
| 2026-05-05 03:05 | 46.02135 | -122.04134 | 30591 ft | 526 kts | 168° |
| 2026-05-05 03:05 | 45.98522 | -122.03282 | 31089 ft | 525 kts | 168° |
| 2026-05-05 03:05 | 45.95000 | -122.02451 | 31544 ft | 525 kts | 167° |
| 2026-05-05 03:06 | 45.91394 | -122.01600 | 31965 ft | 524 kts | 167° |
| 2026-05-05 03:06 | 45.87801 | -122.00752 | 32442 ft | 523 kts | 167° |
| 2026-05-05 03:06 | 45.84279 | -121.99920 | 32863 ft | 523 kts | 167° |
| 2026-05-05 03:06 | 45.80747 | -121.99086 | 33298 ft | 522 kts | 167° |
| 2026-05-05 03:07 | 45.77237 | -121.98258 | 33726 ft | 521 kts | 167° |
| 2026-05-05 03:07 | 45.73657 | -121.97414 | 34110 ft | 521 kts | 167° |
| 2026-05-05 03:07 | 45.70225 | -121.96608 | 34436 ft | 521 kts | 167° |
| 2026-05-05 03:07 | 45.66581 | -121.95751 | 34752 ft | 521 kts | 167° |
| 2026-05-05 03:08 | 45.62986 | -121.94906 | 34849 ft | 526 kts | 167° |
| 2026-05-05 03:08 | 45.55846 | -121.93233 | 34901 ft | 526 kts | 167° |
| 2026-05-05 03:09 | 45.48809 | -121.91595 | 34892 ft | 519 kts | 166° |
| 2026-05-05 03:09 | 45.41801 | -121.89966 | 34898 ft | 518 kts | 166° |
| 2026-05-05 03:10 | 45.34769 | -121.88332 | 34922 ft | 518 kts | 166° |
| 2026-05-05 03:10 | 45.27662 | -121.86681 | 34934 ft | 517 kts | 166° |
| 2026-05-05 03:11 | 45.20638 | -121.85057 | 34940 ft | 517 kts | 166° |
| 2026-05-05 03:11 | 45.13655 | -121.83448 | 34915 ft | 518 kts | 166° |
| 2026-05-05 03:12 | 45.06615 | -121.81830 | 34917 ft | 519 kts | 166° |
| 2026-05-05 03:12 | 44.99572 | -121.80214 | 34917 ft | 518 kts | 166° |
| 2026-05-05 03:13 | 44.92449 | -121.78584 | 34922 ft | 518 kts | 166° |
| 2026-05-05 03:13 | 44.85439 | -121.76985 | 34924 ft | 517 kts | 166° |
| 2026-05-05 03:14 | 44.78465 | -121.75396 | 34921 ft | 517 kts | 166° |
| 2026-05-05 03:14 | 44.71451 | -121.73803 | 34913 ft | 517 kts | 166° |
| 2026-05-05 03:15 | 44.64362 | -121.72197 | 34912 ft | 516 kts | 166° |
| 2026-05-05 03:15 | 44.57370 | -121.70617 | 34905 ft | 515 kts | 166° |
| 2026-05-05 03:16 | 44.50385 | -121.69041 | 34908 ft | 514 kts | 166° |
| 2026-05-05 03:16 | 44.43463 | -121.67484 | 34904 ft | 513 kts | 166° |
| 2026-05-05 03:17 | 44.36490 | -121.65918 | 34905 ft | 513 kts | 166° |
| 2026-05-05 03:17 | 44.29442 | -121.64329 | 34909 ft | 513 kts | 165° |
| 2026-05-05 03:18 | 44.22482 | -121.62713 | 34908 ft | 513 kts | 165° |
| 2026-05-05 03:18 | 44.15525 | -121.61090 | 34905 ft | 514 kts | 165° |
| 2026-05-05 03:19 | 44.05063 | -121.58669 | 34890 ft | 514 kts | 165° |
| 2026-05-05 03:19 | 43.98102 | -121.57068 | 34892 ft | 513 kts | 165° |
| 2026-05-05 03:20 | 43.91152 | -121.55473 | 34900 ft | 512 kts | 165° |
| 2026-05-05 03:20 | 43.84211 | -121.53883 | 34885 ft | 512 kts | 165° |
| 2026-05-05 03:21 | 43.77322 | -121.52309 | 34881 ft | 511 kts | 165° |
| 2026-05-05 03:21 | 43.70309 | -121.50709 | 34878 ft | 511 kts | 165° |
| 2026-05-05 03:22 | 43.63384 | -121.49134 | 34876 ft | 510 kts | 165° |
| 2026-05-05 03:22 | 43.56465 | -121.47563 | 34881 ft | 510 kts | 165° |
| 2026-05-05 03:23 | 43.49564 | -121.46001 | 34872 ft | 509 kts | 165° |
| 2026-05-05 03:23 | 43.42705 | -121.44451 | 34867 ft | 509 kts | 165° |
| 2026-05-05 03:24 | 43.35717 | -121.42876 | 34869 ft | 509 kts | 165° |
| 2026-05-05 03:24 | 43.28824 | -121.41326 | 34872 ft | 508 kts | 165° |
| 2026-05-05 03:25 | 43.21919 | -121.39777 | 34863 ft | 507 kts | 165° |
| 2026-05-05 03:25 | 43.15083 | -121.38247 | 34870 ft | 507 kts | 165° |
| 2026-05-05 03:26 | 43.08221 | -121.36715 | 34858 ft | 506 kts | 165° |
| 2026-05-05 03:26 | 43.01266 | -121.35165 | 34861 ft | 507 kts | 165° |
| 2026-05-05 03:27 | 42.94393 | -121.33636 | 34857 ft | 507 kts | 165° |
| 2026-05-05 03:27 | 42.87521 | -121.32112 | 34854 ft | 506 kts | 165° |
| 2026-05-05 03:28 | 42.80718 | -121.30609 | 34848 ft | 506 kts | 165° |
| 2026-05-05 03:28 | 42.73761 | -121.29072 | 34847 ft | 505 kts | 165° |
| 2026-05-05 03:29 | 42.66909 | -121.27563 | 34842 ft | 504 kts | 165° |
| 2026-05-05 03:29 | 42.60066 | -121.26058 | 34833 ft | 504 kts | 165° |
| 2026-05-05 03:30 | 42.53241 | -121.24562 | 34835 ft | 503 kts | 165° |
| 2026-05-05 03:30 | 42.46404 | -121.23067 | 34834 ft | 503 kts | 165° |
| 2026-05-05 03:31 | 42.39536 | -121.21567 | 34826 ft | 503 kts | 165° |
| 2026-05-05 03:31 | 42.32709 | -121.20079 | 34828 ft | 504 kts | 165° |
| 2026-05-05 03:32 | 42.25861 | -121.18591 | 34822 ft | 504 kts | 165° |
| 2026-05-05 03:32 | 42.19032 | -121.17110 | 34826 ft | 504 kts | 165° |
| 2026-05-05 03:33 | 42.12138 | -121.15618 | 34827 ft | 504 kts | 165° |
| 2026-05-05 03:33 | 42.05299 | -121.14141 | 34824 ft | 504 kts | 165° |
| 2026-05-05 03:34 | 41.98482 | -121.12673 | 34831 ft | 504 kts | 165° |
| 2026-05-05 03:34 | 41.91650 | -121.11204 | 34828 ft | 503 kts | 165° |
| 2026-05-05 03:35 | 41.84796 | -121.09734 | 34827 ft | 503 kts | 165° |
| 2026-05-05 03:35 | 41.77880 | -121.08253 | 34828 ft | 503 kts | 165° |
| 2026-05-05 03:36 | 41.71069 | -121.06798 | 34832 ft | 503 kts | 165° |
| 2026-05-05 03:36 | 41.64297 | -121.05355 | 34839 ft | 503 kts | 165° |
| 2026-05-05 03:37 | 41.57462 | -121.03901 | 34852 ft | 502 kts | 165° |
| 2026-05-05 03:37 | 41.50658 | -121.02457 | 34862 ft | 502 kts | 165° |
| 2026-05-05 03:38 | 41.43847 | -121.01015 | 34875 ft | 501 kts | 165° |
| 2026-05-05 03:38 | 41.37011 | -120.99570 | 34882 ft | 500 kts | 165° |
| 2026-05-05 03:39 | 41.30228 | -120.98140 | 34896 ft | 499 kts | 165° |
| 2026-05-05 03:39 | 41.23438 | -120.96710 | 34903 ft | 498 kts | 166° |
| 2026-05-05 03:40 | 41.16690 | -120.95293 | 34911 ft | 497 kts | 165° |
| 2026-05-05 03:40 | 41.09853 | -120.93859 | 34919 ft | 497 kts | 165° |
| 2026-05-05 03:41 | 41.03152 | -120.92458 | 34918 ft | 497 kts | 165° |
| 2026-05-05 03:41 | 40.96325 | -120.91420 | 34911 ft | 501 kts | 171° |
| 2026-05-05 03:42 | 40.89431 | -120.90902 | 34922 ft | 501 kts | 172° |
| 2026-05-05 03:42 | 40.82468 | -120.90399 | 34920 ft | 501 kts | 171° |
| 2026-05-05 03:43 | 40.75582 | -120.89871 | 34934 ft | 501 kts | 171° |
| 2026-05-05 03:43 | 40.68761 | -120.89327 | 34935 ft | 502 kts | 171° |
| 2026-05-05 03:44 | 40.61860 | -120.88774 | 34934 ft | 502 kts | 171° |
| 2026-05-05 03:44 | 40.54954 | -120.88224 | 34929 ft | 503 kts | 171° |
| 2026-05-05 03:45 | 40.48128 | -120.87683 | 34935 ft | 502 kts | 171° |
| 2026-05-05 03:45 | 40.41080 | -120.87126 | 34935 ft | 502 kts | 171° |
| 2026-05-05 03:46 | 40.34235 | -120.86587 | 34937 ft | 501 kts | 171° |
| 2026-05-05 03:46 | 40.27351 | -120.86044 | 34939 ft | 500 kts | 171° |
| 2026-05-05 03:47 | 40.20472 | -120.85503 | 34953 ft | 500 kts | 172° |
| 2026-05-05 03:47 | 40.13535 | -120.84961 | 34969 ft | 499 kts | 171° |
| 2026-05-05 03:48 | 40.06687 | -120.84423 | 34986 ft | 499 kts | 172° |
| 2026-05-05 03:48 | 39.99884 | -120.83891 | 34982 ft | 499 kts | 172° |
| 2026-05-05 03:49 | 39.93038 | -120.83357 | 35008 ft | 498 kts | 172° |
| 2026-05-05 03:49 | 39.86200 | -120.82826 | 35004 ft | 498 kts | 172° |
| 2026-05-05 03:50 | 39.79361 | -120.82294 | 35018 ft | 498 kts | 172° |
| 2026-05-05 03:50 | 39.72447 | -120.81759 | 35023 ft | 498 kts | 172° |
| 2026-05-05 03:51 | 39.65612 | -120.81231 | 35028 ft | 498 kts | 172° |
| 2026-05-05 03:51 | 39.58799 | -120.80704 | 35038 ft | 496 kts | 172° |
| 2026-05-05 03:52 | 39.52056 | -120.80185 | 35052 ft | 496 kts | 172° |
| 2026-05-05 03:52 | 39.45243 | -120.79662 | 35048 ft | 495 kts | 172° |
| 2026-05-05 03:53 | 39.38409 | -120.79137 | 35047 ft | 494 kts | 172° |
| 2026-05-05 03:53 | 39.31580 | -120.78614 | 35050 ft | 494 kts | 172° |
| 2026-05-05 03:54 | 39.24796 | -120.78096 | 35053 ft | 494 kts | 172° |
| 2026-05-05 03:54 | 39.18066 | -120.77582 | 35055 ft | 493 kts | 172° |
| 2026-05-05 03:55 | 39.11300 | -120.77066 | 35055 ft | 493 kts | 172° |
| 2026-05-05 03:55 | 39.04570 | -120.76556 | 35053 ft | 493 kts | 172° |
| 2026-05-05 03:56 | 38.97696 | -120.76034 | 35054 ft | 492 kts | 172° |
| 2026-05-05 03:56 | 38.90933 | -120.75522 | 35058 ft | 492 kts | 172° |
| 2026-05-05 03:57 | 38.84178 | -120.75012 | 35067 ft | 491 kts | 172° |
| 2026-05-05 03:57 | 38.77481 | -120.74507 | 35062 ft | 491 kts | 172° |
| 2026-05-05 03:58 | 38.70737 | -120.73999 | 35074 ft | 491 kts | 172° |
| 2026-05-05 03:58 | 38.63952 | -120.73488 | 35066 ft | 492 kts | 172° |
| 2026-05-05 03:59 | 38.57145 | -120.72978 | 35057 ft | 493 kts | 172° |
| 2026-05-05 03:59 | 38.50369 | -120.72470 | 35047 ft | 494 kts | 173° |
| 2026-05-05 04:00 | 38.43623 | -120.71966 | 35050 ft | 495 kts | 173° |
| 2026-05-05 04:00 | 38.36822 | -120.71459 | 35051 ft | 496 kts | 173° |
| 2026-05-05 04:01 | 38.29930 | -120.70946 | 35046 ft | 496 kts | 173° |
| 2026-05-05 04:01 | 38.23106 | -120.70439 | 35041 ft | 496 kts | 173° |
| 2026-05-05 04:02 | 38.16281 | -120.69934 | 35047 ft | 496 kts | 173° |
| 2026-05-05 04:02 | 38.09529 | -120.69434 | 35047 ft | 495 kts | 173° |
| 2026-05-05 04:03 | 38.02736 | -120.68932 | 35037 ft | 493 kts | 174° |
| 2026-05-05 04:03 | 37.95894 | -120.68428 | 35034 ft | 492 kts | 174° |
| 2026-05-05 04:04 | 37.89156 | -120.67930 | 35027 ft | 490 kts | 174° |
| 2026-05-05 04:04 | 37.82423 | -120.67436 | 35022 ft | 490 kts | 174° |
| 2026-05-05 04:05 | 37.75743 | -120.66946 | 35026 ft | 490 kts | 174° |
| 2026-05-05 04:05 | 37.69008 | -120.66453 | 35019 ft | 490 kts | 175° |
| 2026-05-05 04:06 | 37.62276 | -120.65961 | 35029 ft | 489 kts | 175° |
| 2026-05-05 04:06 | 37.55502 | -120.65467 | 35022 ft | 489 kts | 175° |
| 2026-05-05 04:07 | 37.48779 | -120.64978 | 35019 ft | 489 kts | 175° |
| 2026-05-05 04:07 | 37.42109 | -120.64492 | 35018 ft | 488 kts | 175° |
| 2026-05-05 04:08 | 37.35403 | -120.63996 | 35019 ft | 488 kts | 174° |
| 2026-05-05 04:08 | 37.28804 | -120.62594 | 35021 ft | 485 kts | 164° |
| 2026-05-05 04:09 | 37.22287 | -120.60414 | 35018 ft | 485 kts | 164° |
| 2026-05-05 04:09 | 37.15877 | -120.58274 | 35019 ft | 484 kts | 165° |
| 2026-05-05 04:10 | 37.09442 | -120.56168 | 35021 ft | 483 kts | 165° |
| 2026-05-05 04:10 | 37.03011 | -120.54087 | 35024 ft | 483 kts | 166° |
| 2026-05-05 04:11 | 36.96518 | -120.51992 | 35023 ft | 482 kts | 166° |
| 2026-05-05 04:11 | 36.90104 | -120.49925 | 35024 ft | 481 kts | 166° |
| 2026-05-05 04:12 | 36.83709 | -120.47866 | 35020 ft | 481 kts | 166° |
| 2026-05-05 04:12 | 36.77317 | -120.45812 | 35026 ft | 480 kts | 166° |
| 2026-05-05 04:13 | 36.70898 | -120.43752 | 35023 ft | 480 kts | 167° |
| 2026-05-05 04:13 | 36.64473 | -120.41695 | 35027 ft | 480 kts | 167° |
| 2026-05-05 04:14 | 36.58005 | -120.39627 | 35026 ft | 480 kts | 167° |
| 2026-05-05 04:14 | 36.51647 | -120.37597 | 35027 ft | 480 kts | 167° |
| 2026-05-05 04:15 | 36.45245 | -120.35557 | 35022 ft | 480 kts | 167° |
| 2026-05-05 04:15 | 36.38856 | -120.33525 | 35021 ft | 480 kts | 168° |
| 2026-05-05 04:16 | 36.32390 | -120.31471 | 35022 ft | 479 kts | 168° |
| 2026-05-05 04:16 | 36.26039 | -120.29458 | 35024 ft | 479 kts | 168° |
| 2026-05-05 04:17 | 36.19645 | -120.27434 | 35019 ft | 479 kts | 168° |
| 2026-05-05 04:17 | 36.13257 | -120.25416 | 35015 ft | 479 kts | 168° |
| 2026-05-05 04:18 | 36.06807 | -120.23381 | 35007 ft | 478 kts | 169° |
| 2026-05-05 04:18 | 36.00465 | -120.21384 | 35015 ft | 478 kts | 169° |
| 2026-05-05 04:19 | 35.94087 | -120.19379 | 35014 ft | 477 kts | 169° |
| 2026-05-05 04:19 | 35.87718 | -120.17380 | 35020 ft | 477 kts | 169° |
| 2026-05-05 04:20 | 35.81282 | -120.15363 | 35013 ft | 476 kts | 170° |
| 2026-05-05 04:20 | 35.74981 | -120.13391 | 35019 ft | 475 kts | 170° |
| 2026-05-05 04:21 | 35.68620 | -120.11404 | 35021 ft | 475 kts | 170° |
| 2026-05-05 04:21 | 35.65477 | -120.10137 | 35011 ft | 483 kts | 158° |
| 2026-05-05 04:21 | 35.62619 | -120.08107 | 35058 ft | 485 kts | 153° |
| 2026-05-05 04:22 | 35.57889 | -120.04374 | 35030 ft | 487 kts | 153° |
| 2026-05-05 04:22 | 35.51245 | -119.99199 | 35034 ft | 488 kts | 154° |
| 2026-05-05 04:23 | 35.46497 | -119.95613 | 35020 ft | 489 kts | 155° |
| 2026-05-05 04:23 | 35.39791 | -119.90590 | 35020 ft | 490 kts | 155° |
| 2026-05-05 04:24 | 35.34031 | -119.86276 | 35018 ft | 491 kts | 155° |
| 2026-05-05 04:24 | 35.31087 | -119.84076 | 34466 ft | 501 kts | 156° |
| 2026-05-05 04:25 | 35.25311 | -119.79416 | 33220 ft | 502 kts | 150° |
| 2026-05-05 04:25 | 35.22555 | -119.76807 | 32622 ft | 498 kts | 148° |
| 2026-05-05 04:25 | 35.19909 | -119.74221 | 32061 ft | 493 kts | 148° |
| 2026-05-05 04:25 | 35.17286 | -119.71664 | 31505 ft | 488 kts | 148° |
| 2026-05-05 04:26 | 35.14680 | -119.69164 | 30947 ft | 483 kts | 149° |
| 2026-05-05 04:26 | 35.12029 | -119.66661 | 30418 ft | 478 kts | 149° |
| 2026-05-05 04:26 | 35.09425 | -119.64231 | 29840 ft | 473 kts | 149° |
| 2026-05-05 04:26 | 35.07728 | -119.62654 | 29418 ft | 471 kts | 149° |
| 2026-05-05 04:27 | 35.04261 | -119.59438 | 28639 ft | 463 kts | 149° |
| 2026-05-05 04:27 | 35.02628 | -119.57923 | 28307 ft | 460 kts | 149° |
| 2026-05-05 04:27 | 35.00098 | -119.55576 | 27771 ft | 454 kts | 149° |
| 2026-05-05 04:27 | 34.97594 | -119.53255 | 27228 ft | 450 kts | 149° |
| 2026-05-05 04:28 | 34.94361 | -119.50258 | 26547 ft | 444 kts | 149° |
| 2026-05-05 04:28 | 34.91911 | -119.47987 | 26044 ft | 440 kts | 149° |
| 2026-05-05 04:28 | 34.89529 | -119.45808 | 25614 ft | 434 kts | 150° |
| 2026-05-05 04:28 | 34.87113 | -119.43645 | 25186 ft | 429 kts | 150° |
| 2026-05-05 04:29 | 34.84741 | -119.41535 | 24769 ft | 424 kts | 150° |
| 2026-05-05 04:29 | 34.83194 | -119.40159 | 24477 ft | 421 kts | 150° |
| 2026-05-05 04:29 | 34.80842 | -119.38064 | 24079 ft | 417 kts | 150° |
| 2026-05-05 04:29 | 34.78559 | -119.36026 | 23691 ft | 413 kts | 150° |
| 2026-05-05 04:30 | 34.76249 | -119.33965 | 23204 ft | 410 kts | 150° |
| 2026-05-05 04:30 | 34.73957 | -119.31925 | 22765 ft | 406 kts | 150° |
| 2026-05-05 04:30 | 34.71728 | -119.29973 | 22347 ft | 401 kts | 151° |
| 2026-05-05 04:30 | 34.69470 | -119.28005 | 21952 ft | 397 kts | 150° |
| 2026-05-05 04:31 | 34.67246 | -119.26067 | 21558 ft | 392 kts | 150° |
| 2026-05-05 04:31 | 34.65114 | -119.24207 | 21188 ft | 388 kts | 150° |
| 2026-05-05 04:31 | 34.62933 | -119.22317 | 20808 ft | 383 kts | 150° |
| 2026-05-05 04:31 | 34.60811 | -119.20491 | 20435 ft | 380 kts | 150° |
| 2026-05-05 04:32 | 34.58663 | -119.18643 | 20056 ft | 377 kts | 150° |
| 2026-05-05 04:32 | 34.56530 | -119.16806 | 19675 ft | 373 kts | 150° |
| 2026-05-05 04:32 | 34.54500 | -119.15030 | 19330 ft | 370 kts | 149° |
| 2026-05-05 04:32 | 34.52406 | -119.13172 | 18981 ft | 368 kts | 149° |
| 2026-05-05 04:33 | 34.50343 | -119.11338 | 18603 ft | 367 kts | 149° |
| 2026-05-05 04:33 | 34.48322 | -119.09546 | 18201 ft | 368 kts | 149° |
| 2026-05-05 04:33 | 34.46277 | -119.07736 | 17778 ft | 368 kts | 149° |
| 2026-05-05 04:33 | 34.44234 | -119.05928 | 17372 ft | 366 kts | 149° |
| 2026-05-05 04:34 | 34.42193 | -119.04148 | 17020 ft | 364 kts | 149° |
| 2026-05-05 04:34 | 34.40142 | -119.02375 | 16644 ft | 362 kts | 149° |
| 2026-05-05 04:34 | 34.38148 | -119.00653 | 16280 ft | 359 kts | 149° |
| 2026-05-05 04:34 | 34.36123 | -118.98902 | 15928 ft | 357 kts | 149° |
| 2026-05-05 04:35 | 34.34132 | -118.97179 | 15591 ft | 354 kts | 148° |
| 2026-05-05 04:35 | 34.32174 | -118.95424 | 15242 ft | 353 kts | 147° |
| 2026-05-05 04:35 | 34.30216 | -118.93633 | 14879 ft | 351 kts | 147° |
| 2026-05-05 04:35 | 34.28310 | -118.91894 | 14547 ft | 349 kts | 147° |
| 2026-05-05 04:36 | 34.26395 | -118.90154 | 14199 ft | 348 kts | 147° |
| 2026-05-05 04:36 | 34.24520 | -118.88448 | 13865 ft | 346 kts | 146° |
| 2026-05-05 04:36 | 34.22592 | -118.86676 | 13480 ft | 345 kts | 146° |
| 2026-05-05 04:36 | 34.20803 | -118.85028 | 13145 ft | 342 kts | 146° |
| 2026-05-05 04:37 | 34.18893 | -118.83272 | 12776 ft | 337 kts | 146° |
| 2026-05-05 04:37 | 34.17040 | -118.81571 | 12426 ft | 332 kts | 146° |
| 2026-05-05 04:37 | 34.15283 | -118.79853 | 12196 ft | 325 kts | 142° |
| 2026-05-05 04:37 | 34.13666 | -118.78091 | 11914 ft | 319 kts | 140° |
| 2026-05-05 04:38 | 34.12051 | -118.76290 | 11551 ft | 310 kts | 140° |
| 2026-05-05 04:38 | 34.10506 | -118.74578 | 11192 ft | 305 kts | 140° |
| 2026-05-05 04:38 | 34.08947 | -118.72866 | 10878 ft | 301 kts | 141° |
| 2026-05-05 04:38 | 34.07424 | -118.71208 | 10419 ft | 303 kts | 141° |
| 2026-05-05 04:39 | 34.05866 | -118.69518 | 10111 ft | 294 kts | 140° |
| 2026-05-05 04:39 | 34.04383 | -118.67905 | 9901 ft | 281 kts | 141° |
| 2026-05-05 04:39 | 34.03188 | -118.66175 | 9564 ft | 276 kts | 117° |
| 2026-05-05 04:39 | 34.02683 | -118.63931 | 9346 ft | 285 kts | 98° |
| 2026-05-05 04:40 | 34.02483 | -118.61591 | 9188 ft | 286 kts | 97° |
| 2026-05-05 04:40 | 34.02273 | -118.59203 | 8956 ft | 286 kts | 97° |
| 2026-05-05 04:40 | 34.02056 | -118.56829 | 8554 ft | 285 kts | 98° |
| 2026-05-05 04:40 | 34.01845 | -118.54538 | 8143 ft | 283 kts | 98° |
| 2026-05-05 04:41 | 34.01630 | -118.52216 | 7881 ft | 274 kts | 98° |
| 2026-05-05 04:41 | 34.01422 | -118.49995 | 7510 ft | 271 kts | 97° |
| 2026-05-05 04:41 | 34.01214 | -118.47787 | 7196 ft | 258 kts | 98° |
| 2026-05-05 04:41 | 34.01044 | -118.45698 | 6905 ft | 244 kts | 91° |
| 2026-05-05 04:42 | 34.01297 | -118.43751 | 6679 ft | 241 kts | 77° |
| 2026-05-05 04:42 | 34.01671 | -118.41795 | 6508 ft | 236 kts | 78° |
| 2026-05-05 04:42 | 34.02004 | -118.39930 | 6402 ft | 231 kts | 79° |
| 2026-05-05 04:42 | 34.02332 | -118.38050 | 6322 ft | 233 kts | 79° |
| 2026-05-05 04:43 | 34.02661 | -118.36152 | 6234 ft | 232 kts | 79° |
| 2026-05-05 04:43 | 34.02911 | -118.34278 | 6025 ft | 230 kts | 84° |
| 2026-05-05 04:43 | 34.03099 | -118.32371 | 5794 ft | 228 kts | 84° |
| 2026-05-05 04:43 | 34.03280 | -118.30509 | 5580 ft | 227 kts | 84° |
| 2026-05-05 04:44 | 34.03461 | -118.28622 | 5359 ft | 226 kts | 84° |
| 2026-05-05 04:44 | 34.03637 | -118.26742 | 5133 ft | 225 kts | 84° |
| 2026-05-05 04:44 | 34.03805 | -118.24907 | 4888 ft | 225 kts | 84° |
| 2026-05-05 04:44 | 34.03977 | -118.23029 | 4628 ft | 225 kts | 84° |
| 2026-05-05 04:45 | 34.04137 | -118.21277 | 4403 ft | 225 kts | 84° |
| 2026-05-05 04:45 | 34.04312 | -118.19345 | 4172 ft | 224 kts | 84° |
| 2026-05-05 04:45 | 34.04488 | -118.17475 | 3920 ft | 225 kts | 84° |
| 2026-05-05 04:45 | 34.04675 | -118.15641 | 3691 ft | 225 kts | 83° |
| 2026-05-05 04:46 | 34.04876 | -118.13774 | 3479 ft | 224 kts | 83° |
| 2026-05-05 04:46 | 34.05065 | -118.11955 | 3227 ft | 224 kts | 84° |
| 2026-05-05 04:46 | 34.05245 | -118.10100 | 3069 ft | 219 kts | 83° |
| 2026-05-05 04:46 | 34.05420 | -118.08405 | 3043 ft | 211 kts | 84° |
| 2026-05-05 04:47 | 34.05588 | -118.06553 | 2995 ft | 223 kts | 84° |
| 2026-05-05 04:47 | 34.05723 | -118.04696 | 2987 ft | 227 kts | 95° |
| 2026-05-05 04:47 | 34.05175 | -118.02948 | 2982 ft | 226 kts | 129° |
| 2026-05-05 04:47 | 34.03946 | -118.01862 | 2986 ft | 223 kts | 162° |
| 2026-05-05 04:48 | 34.02463 | -118.01760 | 2985 ft | 217 kts | 196° |
| 2026-05-05 04:48 | 34.01192 | -118.02652 | 2994 ft | 211 kts | 225° |
| 2026-05-05 04:48 | 34.00206 | -118.03968 | 2997 ft | 212 kts | 231° |
| 2026-05-05 04:48 | 33.99282 | -118.05297 | 2993 ft | 212 kts | 231° |
| 2026-05-05 04:49 | 33.98341 | -118.06665 | 2996 ft | 213 kts | 231° |
| 2026-05-05 04:49 | 33.97400 | -118.08049 | 2997 ft | 213 kts | 232° |
| 2026-05-05 04:49 | 33.96774 | -118.09583 | 2986 ft | 208 kts | 257° |
| 2026-05-05 04:49 | 33.96522 | -118.11293 | 2989 ft | 207 kts | 261° |
| 2026-05-05 04:50 | 33.96323 | -118.12942 | 2990 ft | 204 kts | 262° |
| 2026-05-05 04:50 | 33.96142 | -118.14640 | 2996 ft | 206 kts | 262° |
| 2026-05-05 04:50 | 33.95966 | -118.16357 | 2996 ft | 206 kts | 263° |
| 2026-05-05 04:50 | 33.95797 | -118.18020 | 2993 ft | 201 kts | 263° |
| 2026-05-05 04:51 | 33.95628 | -118.19684 | 2998 ft | 199 kts | 263° |
| 2026-05-05 04:51 | 33.95464 | -118.21308 | 2947 ft | 194 kts | 262° |
| 2026-05-05 04:51 | 33.95302 | -118.22894 | 2687 ft | 195 kts | 263° |
| 2026-05-05 04:51 | 33.95140 | -118.24484 | 2420 ft | 186 kts | 263° |
| 2026-05-05 04:52 | 33.94992 | -118.25939 | 2189 ft | 171 kts | 264° |
| 2026-05-05 04:52 | 33.94855 | -118.27282 | 1949 ft | 152 kts | 264° |
| 2026-05-05 04:52 | 33.94731 | -118.28505 | 1774 ft | 150 kts | 263° |
| 2026-05-05 04:52 | 33.94601 | -118.29775 | 1568 ft | 151 kts | 263° |
| 2026-05-05 04:53 | 33.94480 | -118.30970 | 1366 ft | 150 kts | 264° |
| 2026-05-05 04:53 | 33.94353 | -118.32220 | 1168 ft | 150 kts | 264° |
| 2026-05-05 04:53 | 33.94229 | -118.33448 | 952 ft | 152 kts | 262° |
| 2026-05-05 04:53 | 33.94097 | -118.34712 | 745 ft | 153 kts | 260° |
| 2026-05-05 04:54 | 33.93968 | -118.35940 | 522 ft | 150 kts | 262° |
| 2026-05-05 04:54 | 33.93849 | -118.37183 | 327 ft | 150 kts | 261° |
| 2026-05-05 04:54 | 33.93720 | -118.38425 | 126 ft | 150 kts | 261° |
| 2026-05-05 04:54 | 33.93606 | -118.39530 | 111 ft | 114 kts | 263° |
| 2026-05-05 04:55 | 33.93530 | -118.40261 | 114 ft | 61 kts | 264° |
| 2026-05-05 04:55 | 33.93492 | -118.40650 | 115 ft | 23 kts | 263° |
| 2026-05-05 04:55 | 33.93457 | -118.40719 | 113 ft | 9 kts | 199° |
| 2026-05-05 04:55 | 33.93390 | -118.40711 | 107 ft | 11 kts | 162° |
| 2026-05-05 04:56 | 33.93374 | -118.40622 | 107 ft | 12 kts | 84° |
| 2026-05-05 04:56 | 33.93384 | -118.40518 | 107 ft | 13 kts | 83° |
| 2026-05-05 04:56 | 33.93395 | -118.40414 | 106 ft | 13 kts | 82° |
| 2026-05-05 04:56 | 33.93406 | -118.40309 | 105 ft | 13 kts | 83° |
| 2026-05-05 04:57 | 33.93417 | -118.40202 | 105 ft | 13 kts | 83° |
| 2026-05-05 04:57 | 33.93427 | -118.40098 | 106 ft | 13 kts | 83° |
| 2026-05-05 04:57 | 33.93438 | -118.39990 | 108 ft | 13 kts | 83° |
| 2026-05-05 04:57 | 33.93449 | -118.39883 | 107 ft | 14 kts | 82° |
| 2026-05-05 04:58 | 33.93461 | -118.39769 | 107 ft | 14 kts | 83° |
| 2026-05-05 04:58 | 33.93473 | -118.39655 | 106 ft | 14 kts | 82° |
| 2026-05-05 04:58 | 33.93484 | -118.39543 | 105 ft | 14 kts | 83° |
| 2026-05-05 04:58 | 33.93495 | -118.39428 | 106 ft | 14 kts | 83° |
| 2026-05-05 04:59 | 33.93508 | -118.39313 | 107 ft | 14 kts | 83° |
| 2026-05-05 04:59 | 33.93520 | -118.39200 | 104 ft | 14 kts | 83° |
| 2026-05-05 04:59 | 33.93532 | -118.39084 | 106 ft | 14 kts | 83° |
| 2026-05-05 04:59 | 33.93542 | -118.38984 | 105 ft | 9 kts | 82° |
| 2026-05-05 05:00 | 33.93545 | -118.38907 | 104 ft | 10 kts | 93° |
| 2026-05-05 05:00 | 33.93505 | -118.38833 | 101 ft | 12 kts | 123° |
| 2026-05-05 05:00 | 33.93482 | -118.38771 | 101 ft | 8 kts | 102° |
| 2026-05-05 05:00 | 33.93476 | -118.38730 | 102 ft | 4 kts | 116° |
| 2026-05-05 05:01 | 33.93452 | -118.38715 | 101 ft | 4 kts | 165° |
| 2026-05-05 05:01 | 33.93432 | -118.38710 | 102 ft | 2 kts | 169° |
| 2026-05-05 05:01 | 33.93419 | -118.38707 | 100 ft | 2 kts | 173° |
| 2026-05-05 05:01 | 33.93415 | -118.38707 | 101 ft | 0 kts | 173° |